This is the latest recevied weather packets stored in our database for station/object DL8TF-13. If no packets are shown the sender has not sent any weather packets the latest 10 day(s).
| Time | Temp. | Humidity | Pressure | Rain* | Wind** | Luminosity | Snow |
|---|---|---|---|---|---|---|---|
| 1777453391 | 16.67° C | 34% | 989 hPa | - | - | - | - |
| 1777452791 | 16.67° C | 33% | 989 hPa | - | - | - | - |
| 1777450991 | 16.11° C | 35% | 989 hPa | - | - | - | - |
| 1777450391 | 15.56° C | 35% | 989 hPa | - | - | - | - |
| 1777449791 | 15° C | 36% | 989 hPa | - | - | - | - |
| 1777449191 | 15° C | 36% | 989 hPa | - | - | - | - |
| 1777447991 | 14.44° C | 37% | 989 hPa | - | - | - | - |
| 1777447390 | 14.44° C | 36% | 989 hPa | - | - | - | - |
| 1777446790 | 13.33° C | 38% | 989 hPa | - | - | - | - |
| 1777446190 | 13.33° C | 38% | 989 hPa | - | - | - | - |
| 1777445590 | 13.33° C | 37% | 989 hPa | - | - | - | - |
| 1777444389 | 12.78° C | 38% | 989 hPa | - | - | - | - |
| 1777443789 | 12.78° C | 38% | 989 hPa | - | - | - | - |
| 1777443189 | 12.22° C | 39% | 989 hPa | - | - | - | - |
| 1777442589 | 12.22° C | 39% | 989 hPa | - | - | - | - |
| 1777441989 | 12.22° C | 39% | 989 hPa | - | - | - | - |
| 1777441389 | 11.67° C | 41% | 989 hPa | - | - | - | - |
| 1777440789 | 11.67° C | 43% | 989 hPa | - | - | - | - |
| 1777440189 | 11.67° C | 40% | 989 hPa | - | - | - | - |
| 1777439589 | 11.67° C | 41% | 989 hPa | - | - | - | - |
| 1777438989 | 11.67° C | 41% | 988 hPa | - | - | - | - |
| 1777438389 | 11.67° C | 41% | 988 hPa | - | - | - | - |
| 1777437789 | 11.67° C | 41% | 988 hPa | - | - | - | - |
| 1777437189 | 11.11° C | 44% | 988 hPa | - | - | - | - |
| 1777436589 | 11.11° C | 45% | 988 hPa | - | - | - | - |
* Rain since midnight (hover to see other rain measurements)
** Current wind speed in m/s (hover to see current wind gust speed)